Time;durP1;ratioP1;P1;durP2;ratioP2;P2;SDS_P1;SDS_P2;PMS_P1;PMS_P2;Temp;Humidity;BMP_temperature;BMP_pressure;BME280_temperature;BME280_humidity;BME280_pressure;Samples;Min_cycle;Max_cycle;Signal;HPM_P1;HPM_P2
2022/07/10 00:01:13;;;;;;;4.68;1.98;;;;;;;13.24;74.64;102710.00;5070450;28;20029;-69
2022/07/10 00:03:38;;;;;;;4.60;2.08;;;;;;;13.24;75.72;102710.00;5070860;28;20024;-69
2022/07/10 00:06:04;;;;;;;5.25;2.30;;;;;;;13.13;75.75;102709.13;5070296;28;20027;-69
2022/07/10 00:08:29;;;;;;;4.15;2.10;;;;;;;13.05;75.95;102706.56;5069855;28;20032;-69
2022/07/10 00:10:54;;;;;;;5.75;2.17;;;;;;;12.94;76.87;102708.31;5067358;28;20388;-69
2022/07/10 00:13:20;;;;;;;5.32;2.30;;;;;;;12.88;77.00;102721.44;5070682;28;20111;-69
2022/07/10 00:15:45;;;;;;;4.85;2.30;;;;;;;12.88;76.60;102717.09;5073425;28;20111;-69
2022/07/10 00:18:10;;;;;;;7.20;2.10;;;;;;;12.93;77.45;102719.69;5074879;28;20035;-69
2022/07/10 00:20:36;;;;;;;5.47;2.30;;;;;;;12.88;77.26;102710.97;5072973;28;20052;-69
2022/07/10 00:23:02;;;;;;;8.10;1.95;;;;;;;12.86;77.09;102710.97;5071025;28;20025;-69
2022/07/10 00:25:28;;;;;;;6.68;2.10;;;;;;;12.76;77.31;102711.03;5071209;28;20020;-69
2022/07/10 00:27:53;;;;;;;5.18;2.13;;;;;;;12.73;77.35;102705.78;5073258;28;20032;-69
2022/07/10 00:30:18;;;;;;;4.70;2.33;;;;;;;12.70;77.85;102716.25;5070300;28;20033;-69
2022/07/10 00:32:43;;;;;;;3.80;1.98;;;;;;;12.72;78.30;102709.25;5074005;28;20081;-69
2022/07/10 00:35:09;;;;;;;4.95;2.25;;;;;;;12.69;78.06;102709.25;5073924;28;20464;-69
2022/07/10 00:37:36;;;;;;;6.05;2.08;;;;;;;12.62;78.24;102711.03;5072790;28;20028;-69
2022/07/10 00:40:01;;;;;;;8.13;2.92;;;;;;;12.50;79.06;102695.38;5074249;28;20025;-69
2022/07/10 00:42:27;;;;;;;7.38;2.30;;;;;;;12.55;79.25;102698.84;5069761;28;20028;-69
2022/07/10 00:44:52;;;;;;;5.60;1.90;;;;;;;12.50;79.25;102698.88;5073828;28;20028;-69
2022/07/10 00:47:19;;;;;;;5.50;2.10;;;;;;;12.44;79.63;102704.09;5073301;28;20036;-69
2022/07/10 00:49:45;;;;;;;12.55;2.53;;;;;;;12.38;79.48;102698.88;5073296;28;20032;-69
2022/07/10 00:52:13;;;;;;;6.40;2.78;;;;;;;12.34;80.29;102687.56;5074398;28;20496;-69
2022/07/10 00:54:42;;;;;;;6.10;2.42;;;;;;;12.29;80.86;102696.25;5074094;28;20103;-69
2022/07/10 00:57:07;;;;;;;8.30;3.28;;;;;;;12.32;80.93;102694.50;5069575;28;20029;-69
2022/07/10 00:59:34;;;;;;;7.93;2.13;;;;;;;12.30;81.28;102696.28;5073674;28;20125;-69
2022/07/10 01:02:01;;;;;;;4.75;2.80;;;;;;;12.37;81.65;102686.69;5072788;28;20469;-69
2022/07/10 01:04:26;;;;;;;5.43;2.45;;;;;;;12.42;81.31;102690.13;5074252;28;20024;-69
2022/07/10 01:06:52;;;;;;;6.03;3.00;;;;;;;12.44;80.77;102684.94;5061399;28;20048;-69
2022/07/10 01:09:17;;;;;;;6.07;2.50;;;;;;;12.50;81.33;102683.16;5073246;28;20031;-69
2022/07/10 01:11:43;;;;;;;7.82;3.03;;;;;;;12.63;81.43;102692.72;5070397;28;20032;-69
2022/07/10 01:14:10;;;;;;;3.53;2.47;;;;;;;12.65;81.15;102677.00;5073809;28;20027;-68
2022/07/10 01:16:35;;;;;;;7.97;2.60;;;;;;;12.73;80.98;102669.16;5070391;28;20040;-69
2022/07/10 01:19:00;;;;;;;5.60;2.50;;;;;;;12.74;80.54;102666.50;5071582;28;20078;-69
2022/07/10 01:21:31;;;;;;;6.05;2.60;;;;;;;12.70;80.63;102670.03;5073955;28;20488;-69
2022/07/10 01:23:56;;;;;;;7.57;2.72;;;;;;;12.62;80.50;102662.22;5065591;28;20030;-69
2022/07/10 01:26:23;;;;;;;5.88;2.80;;;;;;;12.54;80.26;102658.72;5070432;28;20012;-69
2022/07/10 01:28:50;;;;;;;7.43;2.70;;;;;;;12.47;81.08;102662.25;5072300;28;20468;-69
2022/07/10 01:31:20;;;;;;;5.80;2.38;;;;;;;12.36;81.40;102657.03;5072581;28;20028;-69
2022/07/10 01:33:46;;;;;;;4.90;2.20;;;;;;;12.27;82.08;102661.41;5070771;28;20107;-69
2022/07/10 01:36:12;;;;;;;6.10;2.38;;;;;;;12.13;82.24;102657.06;5066420;28;20025;-69
2022/07/10 01:38:38;;;;;;;6.28;3.00;;;;;;;12.05;82.73;102657.94;5071416;28;20017;-69
2022/07/10 01:41:04;;;;;;;6.55;2.55;;;;;;;11.92;83.30;102652.72;5073067;28;20468;-69
2022/07/10 01:43:29;;;;;;;5.95;2.60;;;;;;;11.87;83.75;102657.09;5073132;28;20024;-69
2022/07/10 01:45:54;;;;;;;6.65;2.47;;;;;;;11.82;84.33;102656.16;5071116;28;20028;-69
2022/07/10 01:48:19;;;;;;;3.88;2.50;;;;;;;11.81;84.28;102654.44;5069752;28;20391;-69
2022/07/10 01:50:45;;;;;;;6.30;2.13;;;;;;;11.79;84.33;102661.41;5072775;28;20020;-69
2022/07/10 01:53:10;;;;;;;6.05;2.63;;;;;;;11.72;84.69;102665.75;5071462;28;20484;-69
2022/07/10 01:55:36;;;;;;;7.57;2.45;;;;;;;11.66;84.90;102659.66;5072641;28;20077;-69
2022/07/10 01:58:01;;;;;;;6.28;3.13;;;;;;;11.60;85.03;102657.88;5057589;28;20045;-69
2022/07/10 02:00:27;;;;;;;6.30;2.83;;;;;;;11.53;85.19;102663.13;5069876;28;20533;-69
2022/07/10 02:05:37;;;;;;;;;;;;;;;11.60;81.69;102652.66;5072460;28;20059;-69
2022/07/10 02:08:03;;;;;;;5.13;2.53;;;;;;;11.55;84.96;102658.78;5070619;28;19920;-69
2022/07/10 02:10:29;;;;;;;6.47;2.63;;;;;;;11.54;85.42;102663.09;5072598;28;20444;-69
2022/07/10 02:12:55;;;;;;;5.90;2.55;;;;;;;11.47;85.86;102664.84;5069260;28;20035;-69
2022/07/10 02:15:21;;;;;;;5.35;2.80;;;;;;;11.43;86.30;102657.88;5067253;28;20472;-69
2022/07/10 02:17:46;;;;;;;7.88;2.92;;;;;;;11.38;86.79;102656.09;5053950;28;20124;-69
2022/07/10 02:20:12;;;;;;;3.97;2.40;;;;;;;11.35;87.14;102658.75;5054989;28;20017;-69
2022/07/10 02:22:37;;;;;;;5.63;2.63;;;;;;;11.34;87.55;102663.06;5058745;28;20468;-69
2022/07/10 02:25:03;;;;;;;11.18;2.42;;;;;;;11.29;88.12;102654.38;5065470;28;20076;-69
2022/07/10 02:27:28;;;;;;;7.32;2.65;;;;;;;11.27;88.23;102650.00;5067577;28;20048;-68
2022/07/10 02:29:54;;;;;;;5.25;2.70;;;;;;;11.26;88.05;102659.56;5071968;28;20442;-69
2022/07/10 02:32:19;;;;;;;6.38;3.00;;;;;;;11.22;88.33;102663.91;5066167;28;20422;-69
2022/07/10 02:34:44;;;;;;;6.97;2.90;;;;;;;11.19;88.55;102653.47;5063374;28;20032;-69
2022/07/10 02:37:09;;;;;;;8.65;2.65;;;;;;;11.15;88.66;102650.81;5065514;28;20037;-69
2022/07/10 02:39:35;;;;;;;6.70;2.50;;;;;;;11.09;88.96;102640.41;5065382;28;20028;-69
2022/07/10 02:42:00;;;;;;;6.15;2.85;;;;;;;11.11;89.04;102656.91;5069943;28;20036;-69
2022/07/10 02:44:25;;;;;;;6.43;2.78;;;;;;;11.06;88.96;102654.31;5072464;28;20025;-69
2022/07/10 02:46:50;;;;;;;7.57;3.00;;;;;;;11.05;89.18;102651.66;5069507;28;20024;-69
2022/07/10 02:49:16;;;;;;;5.25;2.58;;;;;;;10.99;89.34;102644.72;5069168;28;20040;-69
2022/07/10 02:51:41;;;;;;;6.85;2.80;;;;;;;10.98;89.17;102649.03;5057524;28;20485;-68
2022/07/10 02:54:07;;;;;;;5.47;2.90;;;;;;;10.97;89.08;102652.50;5070663;28;20036;-68
2022/07/10 02:56:33;;;;;;;5.70;2.80;;;;;;;10.97;89.39;102654.25;5070777;28;20029;-69
2022/07/10 02:58:58;;;;;;;5.13;3.20;;;;;;;11.00;89.94;102655.13;5068001;28;20043;-68
2022/07/10 03:01:24;;;;;;;7.68;2.85;;;;;;;11.05;89.96;102646.44;5071034;28;20032;-69
2022/07/10 03:03:49;;;;;;;6.22;2.70;;;;;;;11.10;90.07;102645.59;5070659;28;20023;-69
2022/07/10 03:06:14;;;;;;;6.38;2.83;;;;;;;11.18;90.33;102648.22;5071999;28;20024;-69
2022/07/10 03:08:40;;;;;;;6.97;2.75;;;;;;;11.24;90.19;102645.63;5068126;28;20039;-69
2022/07/10 03:11:05;;;;;;;5.80;2.75;;;;;;;11.26;90.63;102649.13;5071416;28;20373;-69
2022/07/10 03:13:30;;;;;;;4.18;2.70;;;;;;;11.27;90.46;102648.25;5072080;28;20078;-69
2022/07/10 03:15:55;;;;;;;5.22;2.90;;;;;;;11.23;89.84;102638.69;5066098;28;20017;-68
2022/07/10 03:18:21;;;;;;;6.97;2.97;;;;;;;11.23;89.75;102642.16;5062540;28;20036;-68
2022/07/10 03:20:46;;;;;;;6.88;2.90;;;;;;;11.18;89.95;102643.00;5071188;28;20047;-69
2022/07/10 03:23:11;;;;;;;5.72;3.10;;;;;;;11.16;90.24;102647.38;5071087;28;20103;-68
2022/07/10 03:25:36;;;;;;;7.53;3.10;;;;;;;11.09;89.88;102650.84;5058234;28;20045;-69
2022/07/10 03:28:02;;;;;;;7.90;3.08;;;;;;;11.05;90.33;102646.44;5066492;28;20029;-68
2022/07/10 03:30:27;;;;;;;5.32;2.63;;;;;;;11.03;90.55;102649.06;5070337;28;20028;-69
2022/07/10 03:32:52;;;;;;;8.65;3.20;;;;;;;11.00;90.42;102636.88;5069143;28;20456;-69
2022/07/10 03:35:18;;;;;;;4.65;3.00;;;;;;;10.96;90.39;102635.13;5071704;28;20012;-69
2022/07/10 03:37:43;;;;;;;8.60;3.10;;;;;;;10.94;90.63;102630.75;5068966;28;20388;-69
2022/07/10 03:40:09;;;;;;;7.32;3.10;;;;;;;10.92;90.74;102643.81;5071637;28;20017;-69
2022/07/10 03:42:34;;;;;;;5.18;3.28;;;;;;;10.90;90.94;102637.72;5070244;28;20353;-69
2022/07/10 03:45:00;;;;;;;5.78;3.20;;;;;;;10.91;90.90;102626.41;5070560;28;20024;-69
2022/07/10 03:47:25;;;;;;;5.78;3.10;;;;;;;10.89;90.99;102628.16;5067958;28;20404;-69
2022/07/10 03:49:51;;;;;;;7.72;3.60;;;;;;;10.92;91.10;102625.56;5073263;28;20028;-69
2022/07/10 03:52:16;;;;;;;4.68;3.05;;;;;;;10.92;91.16;102624.66;5074821;28;20086;-69
2022/07/10 03:54:41;;;;;;;9.75;3.60;;;;;;;10.90;91.08;102624.66;5071617;28;20020;-69
2022/07/10 03:59:50;;;;;;;4.15;2.97;;;;;;;10.88;91.26;102631.59;5073733;28;20117;-69
2022/07/10 04:02:16;;;;;;;8.20;3.53;;;;;;;10.84;91.54;102624.63;5075215;28;20016;-69
2022/07/10 04:04:41;;;;;;;7.93;3.50;;;;;;;10.86;91.85;102622.91;5071610;28;20039;-69
2022/07/10 04:07:06;;;;;;;7.88;3.67;;;;;;;10.93;91.87;102622.06;5073979;28;20028;-69
2022/07/10 04:09:32;;;;;;;6.95;3.40;;;;;;;11.02;91.04;102627.31;5073493;28;20032;-69
2022/07/10 04:11:57;;;;;;;6.93;4.20;;;;;;;11.09;91.57;102627.34;5069273;28;20027;-69
2022/07/10 04:14:22;;;;;;;8.27;4.20;;;;;;;11.19;91.96;102626.50;5074166;28;20104;-69
2022/07/10 04:16:48;;;;;;;9.38;3.53;;;;;;;11.32;91.84;102628.25;5074263;28;20036;-69
2022/07/10 04:19:13;;;;;;;6.53;3.30;;;;;;;11.40;91.61;102626.53;5074465;28;20027;-69
2022/07/10 04:21:38;;;;;;;10.52;3.90;;;;;;;11.49;90.49;102628.28;5071592;28;20526;-69
2022/07/10 04:24:04;;;;;;;6.60;3.67;;;;;;;11.62;90.99;102634.41;5074009;28;20108;-69
2022/07/10 04:26:29;;;;;;;6.50;3.47;;;;;;;11.71;90.34;102632.66;5060513;28;20050;-69
2022/07/10 04:28:55;;;;;;;8.38;3.22;;;;;;;11.81;90.70;102627.44;5074382;28;20104;-69
2022/07/10 04:31:20;;;;;;;6.55;3.30;;;;;;;11.90;90.40;102614.38;5071116;28;20476;-69
2022/07/10 04:33:45;;;;;;;5.82;3.28;;;;;;;11.98;89.99;102617.00;5072542;28;20486;-69
2022/07/10 04:36:10;;;;;;;7.03;3.45;;;;;;;12.07;89.48;102617.00;5074471;28;20028;-69
2022/07/10 04:38:36;;;;;;;5.88;3.47;;;;;;;12.18;88.96;102628.31;5074168;28;20078;-69
2022/07/10 04:41:01;;;;;;;6.50;3.20;;;;;;;12.25;88.96;102621.31;5072602;28;20035;-69
2022/07/10 04:43:26;;;;;;;7.20;3.35;;;;;;;12.34;89.21;102623.91;5074668;28;20012;-69
2022/07/10 04:45:52;;;;;;;6.47;3.13;;;;;;;12.43;88.61;102628.25;5074094;28;20384;-69
2022/07/10 04:48:17;;;;;;;5.50;3.35;;;;;;;12.50;87.52;102619.50;5069993;28;20087;-69
2022/07/10 04:50:42;;;;;;;5.72;2.83;;;;;;;12.56;87.68;102609.91;5071971;28;20032;-69
2022/07/10 04:53:08;;;;;;;5.82;3.40;;;;;;;12.67;85.99;102615.09;5069794;28;20400;-68
2022/07/10 04:55:33;;;;;;;5.00;3.22;;;;;;;12.70;85.87;102612.47;5071101;28;20035;-69
2022/07/10 04:57:58;;;;;;;6.10;3.35;;;;;;;12.80;86.00;102634.22;5071820;28;20068;-69
2022/07/10 05:00:24;;;;;;;5.55;3.40;;;;;;;12.86;84.50;102624.59;5071947;28;20028;-69
2022/07/10 05:02:49;;;;;;;8.52;3.75;;;;;;;12.94;85.28;102621.06;5072769;28;20111;-69
2022/07/10 05:05:14;;;;;;;9.00;3.30;;;;;;;13.03;84.39;102629.75;5072706;28;20028;-68
2022/07/10 05:07:40;;;;;;;10.65;3.72;;;;;;;13.08;84.22;102617.50;5073660;28;20070;-69
2022/07/10 05:10:05;;;;;;;9.85;3.30;;;;;;;13.16;84.03;102614.84;5070375;28;20033;-68
2022/07/10 05:12:31;;;;;;;5.55;3.50;;;;;;;13.20;83.16;102613.94;5072072;28;20036;-69
2022/07/10 05:14:57;;;;;;;7.75;3.30;;;;;;;13.25;82.55;102625.31;5073467;28;20507;-69
2022/07/10 05:17:23;;;;;;;8.27;3.30;;;;;;;13.35;83.44;102621.72;5070942;28;20032;-69
2022/07/10 05:19:48;;;;;;;11.63;3.40;;;;;;;13.44;83.08;102633.00;5073348;28;20903;-69
2022/07/10 05:22:14;;;;;;;7.20;3.30;;;;;;;13.52;82.67;102631.22;5071065;28;20089;-69
2022/07/10 05:24:39;;;;;;;10.35;3.60;;;;;;;13.60;82.94;102624.16;5068438;28;20036;-69
2022/07/10 05:27:05;;;;;;;4.72;3.42;;;;;;;13.59;83.33;102627.69;5060942;28;20028;-69
2022/07/10 05:29:30;;;;;;;4.88;3.30;;;;;;;13.56;84.20;102627.69;5071991;28;20032;-69
2022/07/10 05:31:55;;;;;;;7.82;3.33;;;;;;;13.48;84.18;102625.16;5071884;28;20036;-69
2022/07/10 05:34:21;;;;;;;9.15;3.40;;;;;;;13.45;84.11;102625.16;5073356;28;20024;-69
2022/07/10 05:36:46;;;;;;;6.22;3.00;;;;;;;13.46;84.38;102619.03;5070430;28;20076;-69
2022/07/10 05:39:11;;;;;;;7.40;2.95;;;;;;;13.50;84.20;102625.13;5072560;28;20074;-69
2022/07/10 05:41:36;;;;;;;7.50;3.67;;;;;;;13.50;85.26;102627.75;5071991;28;20025;-69
2022/07/10 05:44:02;;;;;;;7.68;3.45;;;;;;;13.55;84.90;102623.34;5066520;28;20086;-68
2022/07/10 05:46:28;;;;;;;8.45;3.28;;;;;;;13.60;85.93;102629.41;5069904;28;20031;-69
2022/07/10 05:48:53;;;;;;;7.88;3.25;;;;;;;13.63;84.72;102629.38;5072680;28;20384;-69
2022/07/10 05:51:18;;;;;;;7.38;2.92;;;;;;;13.73;85.82;102627.56;5058705;28;20025;-69
2022/07/10 05:53:44;;;;;;;6.57;2.80;;;;;;;13.81;84.97;102629.25;5071561;28;20035;-69
2022/07/10 05:56:09;;;;;;;6.90;2.58;;;;;;;13.89;85.16;102626.53;5069697;28;20109;-69
2022/07/10 05:58:34;;;;;;;7.03;2.70;;;;;;;13.97;86.01;102629.13;5071721;28;20041;-69
2022/07/10 06:01:00;;;;;;;7.70;2.63;;;;;;;14.03;85.88;102624.69;5062759;28;20052;-69
2022/07/10 06:03:25;;;;;;;6.68;2.33;;;;;;;14.11;84.76;102627.22;5069269;28;20427;-69
2022/07/10 06:05:51;;;;;;;5.25;2.33;;;;;;;14.17;84.18;102632.41;5071550;28;20035;-69
2022/07/10 06:08:16;;;;;;;7.57;2.17;;;;;;;14.26;83.15;102627.09;5072606;28;20472;-68
2022/07/10 06:10:43;;;;;;;10.27;2.20;;;;;;;14.35;83.96;102626.09;5065421;28;20426;-69
2022/07/10 06:13:09;;;;;;;7.95;2.20;;;;;;;14.43;82.71;102612.91;5060971;28;20020;-68
2022/07/10 06:15:35;;;;;;;5.63;2.00;;;;;;;14.50;82.45;102622.44;5072297;28;20055;-69
2022/07/10 06:18:00;;;;;;;6.90;1.90;;;;;;;14.56;81.61;102619.78;5072483;28;20067;-69
2022/07/10 06:20:26;;;;;;;4.30;1.98;;;;;;;14.61;81.25;102623.22;5069849;28;20048;-69
2022/07/10 06:22:51;;;;;;;5.38;1.98;;;;;;;14.69;80.03;102629.25;5071843;28;20031;-69
2022/07/10 06:25:16;;;;;;;5.75;2.00;;;;;;;14.80;79.50;102628.25;5062357;28;20032;-69
2022/07/10 06:27:42;;;;;;;9.07;2.08;;;;;;;15.06;79.46;102620.03;5067719;28;20031;-69
2022/07/10 06:30:08;;;;;;;6.10;2.30;;;;;;;15.22;78.32;102626.78;5072190;28;20404;-69
2022/07/10 06:32:33;;;;;;;5.65;1.85;;;;;;;15.45;77.97;102629.94;5069812;28;20055;-69
2022/07/10 06:34:58;;;;;;;4.82;1.70;;;;;;;15.67;76.70;102620.00;5072086;28;20066;-69
2022/07/10 06:37:23;;;;;;;6.40;1.85;;;;;;;15.84;77.69;102617.06;5068515;28;20039;-69
2022/07/10 06:39:49;;;;;;;7.97;1.83;;;;;;;15.83;74.40;102623.25;5067460;28;20070;-69
2022/07/10 06:42:14;;;;;;;6.03;1.58;;;;;;;15.81;74.80;102613.63;5070455;28;20056;-69
2022/07/10 06:44:43;;;;;;;6.65;1.83;;;;;;;15.81;75.08;102608.38;5071720;28;20024;-69
2022/07/10 06:49:56;;;;;;;4.63;1.70;;;;;;;15.81;74.75;102611.88;5068957;28;20117;-69
2022/07/10 06:52:21;;;;;;;9.88;2.08;;;;;;;15.81;74.23;102609.22;5071316;28;20021;-69
2022/07/10 06:54:47;;;;;;;8.80;1.95;;;;;;;15.77;75.37;102612.81;5070788;28;20496;-69
2022/07/10 06:57:12;;;;;;;4.80;1.52;;;;;;;15.78;75.22;102608.41;5068546;28;20089;-69
2022/07/10 06:59:38;;;;;;;5.47;1.80;;;;;;;15.80;75.65;102617.16;5071613;28;20119;-69
2022/07/10 07:02:04;;;;;;;9.50;2.00;;;;;;;15.85;75.55;102607.41;5060070;28;20033;-69
2022/07/10 07:04:29;;;;;;;9.77;2.30;;;;;;;15.94;75.03;102607.25;5071937;28;20020;-69
2022/07/10 07:06:55;;;;;;;7.50;1.77;;;;;;;16.04;74.51;102614.09;5071405;28;20043;-69
2022/07/10 07:09:20;;;;;;;5.10;2.00;;;;;;;16.18;74.46;102608.56;5071383;28;20393;-69
2022/07/10 07:11:45;;;;;;;8.93;1.88;;;;;;;16.51;74.83;102603.53;5067695;28;20116;-69
2022/07/10 07:14:11;;;;;;;7.05;2.25;;;;;;;16.79;73.46;102612.63;5071863;28;20028;-69
2022/07/10 07:16:44;;;;;;;8.20;1.85;;;;;;;17.03;72.95;102603.31;5070769;28;20028;-69
2022/07/10 07:19:17;;;;;;;;;;;;;;;17.41;73.47;102614.75;5071847;28;20027;-69
2022/07/10 07:24:29;;;;;;;8.18;1.70;;;;;;;18.03;66.19;102611.47;5060140;28;20035;-69
2022/07/10 07:26:55;;;;;;;7.22;1.92;;;;;;;17.99;64.87;102618.59;5067637;28;20025;-69
2022/07/10 07:29:20;;;;;;;5.93;2.10;;;;;;;18.03;64.94;102616.75;5077605;28;20035;-69
2022/07/10 07:31:45;;;;;;;7.68;2.22;;;;;;;17.98;66.95;102627.44;5076637;28;20020;-69
2022/07/10 07:34:11;;;;;;;12.80;2.35;;;;;;;17.99;65.38;102630.94;5078615;28;20016;-69
2022/07/10 07:36:37;;;;;;;5.43;1.88;;;;;;;18.08;65.99;102627.16;5077233;28;20020;-69
2022/07/10 07:39:03;;;;;;;4.63;1.50;;;;;;;18.14;67.59;102619.09;5078232;28;20422;-69
2022/07/10 07:41:28;;;;;;;6.30;2.03;;;;;;;18.25;65.48;102620.53;5075563;28;20077;-69
2022/07/10 07:43:53;;;;;;;7.10;1.85;;;;;;;18.20;64.81;102616.28;5075634;28;20111;-69
2022/07/10 07:46:19;;;;;;;9.90;2.22;;;;;;;18.18;66.61;102610.19;5078045;28;20056;-69
2022/07/10 07:48:45;;;;;;;5.25;2.10;;;;;;;18.33;66.55;102622.97;5077799;28;20104;-69
2022/07/10 07:51:10;;;;;;;5.13;2.17;;;;;;;18.43;64.61;102615.66;5072431;28;20064;-69
2022/07/10 07:53:35;;;;;;;7.93;2.55;;;;;;;18.60;66.11;102620.44;5064866;28;20056;-69
2022/07/10 07:56:01;;;;;;;7.85;2.35;;;;;;;18.67;64.29;102625.53;5077831;28;20032;-69
2022/07/10 07:58:26;;;;;;;7.18;2.78;;;;;;;18.79;63.21;102626.97;5074663;28;20112;-69
2022/07/10 08:00:52;;;;;;;8.93;2.47;;;;;;;18.96;63.49;102618.53;5073049;28;20036;-69
2022/07/10 08:03:17;;;;;;;10.30;2.80;;;;;;;19.08;62.76;102622.56;5090952;28;20442;-69
2022/07/10 08:05:42;;;;;;;9.27;2.67;;;;;;;18.82;62.74;102626.00;5077220;28;20056;-69
2022/07/10 08:08:11;;;;;;;6.47;2.63;;;;;;;18.73;63.55;102627.13;5085386;28;20025;-69
2022/07/10 08:10:36;;;;;;;9.57;2.75;;;;;;;18.49;63.05;102623.41;5077972;28;20361;-69
2022/07/10 08:13:03;;;;;;;10.77;3.15;;;;;;;18.33;65.51;102622.97;5084837;28;20024;-69
2022/07/10 08:15:29;;;;;;;6.03;2.90;;;;;;;18.39;64.75;102622.78;5077944;28;20021;-69
2022/07/10 08:17:56;;;;;;;11.75;3.10;;;;;;;18.41;64.10;102610.44;5075751;28;20024;-70
2022/07/10 08:20:23;;;;;;;9.07;2.95;;;;;;;18.38;64.63;102607.00;5071351;28;20033;-70
2022/07/10 08:22:48;;;;;;;8.85;3.80;;;;;;;18.33;65.22;102614.19;5077419;28;20028;-69
2022/07/10 08:25:14;;;;;;;7.03;2.85;;;;;;;18.34;65.90;102610.63;5067163;28;20027;-69
2022/07/10 08:27:40;;;;;;;8.82;3.13;;;;;;;18.64;65.21;102616.84;5069828;28;20081;-69
2022/07/10 08:30:08;;;;;;;7.40;3.05;;;;;;;19.02;66.37;102609.53;5077481;28;20111;-69
2022/07/10 08:32:34;;;;;;;7.53;3.33;;;;;;;19.37;64.09;102617.22;5076641;28;20028;-69
2022/07/10 08:34:59;;;;;;;10.15;3.30;;;;;;;19.57;62.22;102610.44;5068151;28;20028;-69
2022/07/10 08:37:24;;;;;;;7.70;3.17;;;;;;;19.74;61.20;102608.09;5066769;28;20469;-70
2022/07/10 08:39:50;;;;;;;8.57;3.75;;;;;;;19.81;62.45;102608.75;5072948;28;20039;-69
2022/07/10 08:42:15;;;;;;;6.38;3.30;;;;;;;19.92;61.16;102611.06;5069419;28;20029;-69
2022/07/10 08:44:41;;;;;;;8.20;3.22;;;;;;;19.87;62.19;102614.69;5064117;28;20029;-73
2022/07/10 08:47:06;;;;;;;15.07;3.08;;;;;;;19.92;62.91;102613.72;5065212;28;20059;-74
2022/07/10 08:49:35;;;;;;;12.60;2.83;;;;;;;19.79;62.63;102616.75;5074271;28;20034;-74
2022/07/10 08:52:16;;;;;;;7.38;2.35;;;;;;;19.64;62.40;102612.84;5062020;28;20507;-74
2022/07/10 08:54:42;;;;;;;7.68;2.60;;;;;;;19.52;63.27;102615.88;5075075;28;20025;-74
2022/07/10 08:57:08;;;;;;;5.68;2.58;;;;;;;19.42;61.02;102617.06;5064843;28;20028;-74
2022/07/10 08:59:34;;;;;;;5.97;2.92;;;;;;;19.38;61.65;102623.38;5060567;28;20517;-74
2022/07/10 09:02:00;;;;;;;7.88;2.65;;;;;;;19.37;61.94;102626.94;5068067;28;20059;-76
2022/07/10 09:04:26;;;;;;;8.60;2.70;;;;;;;19.48;63.63;102623.94;5074744;28;20071;-76
2022/07/10 09:06:53;;;;;;;6.90;2.78;;;;;;;19.57;62.28;102627.16;5077847;28;20021;-74
2022/07/10 09:09:19;;;;;;;6.13;2.67;;;;;;;19.71;59.52;102618.78;5070809;28;20023;-74
2022/07/10 09:11:44;;;;;;;6.90;2.60;;;;;;;19.75;60.43;102619.56;5078393;28;20024;-75
2022/07/10 09:14:14;;;;;;;7.05;2.65;;;;;;;19.79;59.98;102611.47;5061947;28;20032;-74
2022/07/10 09:16:47;;;;;;;6.25;2.70;;;;;;;19.74;61.31;102612.53;5068368;28;20043;-74
2022/07/10 09:19:19;;;;;;;7.15;2.95;;;;;;;19.66;61.86;102612.81;5060106;28;20027;-74
2022/07/10 09:21:47;;;;;;;9.67;3.20;;;;;;;19.62;62.03;102605.88;5070177;28;20029;-74
2022/07/10 09:24:13;;;;;;;6.60;2.55;;;;;;;19.64;61.96;102609.34;5070627;28;20017;-74
2022/07/10 09:26:40;;;;;;;5.00;2.65;;;;;;;19.75;63.03;102603.66;5055860;28;20032;-74
2022/07/10 09:29:10;;;;;;;7.10;2.80;;;;;;;19.75;60.53;102601.91;5069680;28;20024;-74
2022/07/10 09:31:55;;;;;;;5.72;2.55;;;;;;;19.91;60.74;102596.94;5062686;28;20415;-74
2022/07/10 09:34:40;;;;;;;5.53;2.28;;;;;;;19.85;60.92;102594.53;5073354;28;20024;-74
2022/07/10 09:37:20;;;;;;;3.67;2.10;;;;;;;19.58;61.84;102594.50;5068643;28;20032;-74
2022/07/10 09:39:59;;;;;;;5.70;2.30;;;;;;;19.23;63.85;102595.66;5073249;28;20024;-75
2022/07/10 09:42:30;;;;;;;5.43;2.45;;;;;;;19.22;63.73;102593.91;5064630;28;20028;-75
2022/07/10 09:45:13;;;;;;;6.03;2.53;;;;;;;19.70;62.86;102590.63;5070442;28;20028;-74
2022/07/10 09:47:39;;;;;;;8.38;2.30;;;;;;;19.86;60.26;102586.53;5057837;28;20396;-75
2022/07/10 09:50:22;;;;;;;7.22;2.47;;;;;;;19.85;62.98;102582.16;5054193;28;20472;-74
2022/07/10 09:52:50;;;;;;;5.25;1.92;;;;;;;19.69;62.29;102588.03;5065175;28;20089;-75
2022/07/10 09:55:18;;;;;;;5.78;2.50;;;;;;;19.51;62.95;102592.13;5064350;28;20104;-75
2022/07/10 09:57:47;;;;;;;8.63;2.55;;;;;;;19.37;60.11;102592.56;5056397;28;20481;-74
2022/07/10 10:00:13;;;;;;;6.25;2.40;;;;;;;19.59;61.53;102577.72;5057150;28;20078;-74
2022/07/10 10:02:39;;;;;;;4.20;2.35;;;;;;;20.09;59.94;102587.50;5063918;28;20020;-74
2022/07/10 10:05:05;;;;;;;3.72;2.28;;;;;;;20.66;57.62;102580.97;5059574;28;20039;-74
2022/07/10 10:07:36;;;;;;;9.80;2.45;;;;;;;20.78;56.54;102579.66;5069758;28;20052;-74
2022/07/10 10:10:03;;;;;;;4.53;2.50;;;;;;;20.66;58.37;102578.31;5073553;28;20040;-74
2022/07/10 10:12:38;;;;;;;6.05;2.75;;;;;;;20.52;59.16;102580.66;5067275;28;20029;-74
2022/07/10 10:15:05;;;;;;;5.30;2.45;;;;;;;20.24;60.50;102579.00;5069587;28;20460;-74
2022/07/10 10:17:32;;;;;;;5.75;2.78;;;;;;;20.38;59.73;102573.19;5069233;28;20123;-74
2022/07/10 10:23:05;;;;;;;7.05;2.20;;;;;;;21.89;58.04;102578.66;5062118;28;20052;-74
2022/07/10 10:25:32;;;;;;;6.20;2.47;;;;;;;22.28;55.20;102569.88;5055777;28;20139;-74
2022/07/10 10:28:04;;;;;;;8.02;2.58;;;;;;;22.27;54.20;102576.09;5060181;28;20036;-74
2022/07/10 10:30:31;;;;;;;5.07;2.55;;;;;;;21.82;54.93;102572.75;5060895;28;20021;-75
2022/07/10 10:32:56;;;;;;;5.65;2.40;;;;;;;21.31;57.52;102575.78;5063704;28;20107;-74
2022/07/10 10:35:46;;;;;;;4.13;2.47;;;;;;;21.21;58.87;102569.97;5072501;28;20567;-75
2022/07/10 10:38:12;;;;;;;4.63;2.60;;;;;;;21.41;58.84;102567.41;5072119;28;20472;-75
2022/07/10 10:40:38;;;;;;;7.38;2.97;;;;;;;21.82;56.83;102564.78;5075656;28;20107;-75
2022/07/10 10:43:17;;;;;;;7.35;2.58;;;;;;;22.32;55.55;102571.44;5067441;28;20478;-75
2022/07/10 10:45:43;;;;;;;2.63;2.10;;;;;;;22.65;55.41;102569.03;5062635;28;20028;-75
2022/07/10 10:48:10;;;;;;;5.10;2.55;;;;;;;22.99;51.14;102564.78;5062649;28;20461;-75
2022/07/10 10:50:37;;;;;;;4.30;2.70;;;;;;;23.24;51.14;102554.66;5060112;28;20097;-75
2022/07/10 10:53:02;;;;;;;7.75;2.72;;;;;;;23.35;52.65;102554.13;5077556;28;20039;-75
2022/07/10 10:55:27;;;;;;;4.32;2.35;;;;;;;23.23;51.14;102550.28;5072158;28;20024;-75
2022/07/10 10:57:52;;;;;;;5.45;2.47;;;;;;;23.22;50.63;102561.88;5075817;28;20508;-75
2022/07/10 11:00:37;;;;;;;6.85;2.10;;;;;;;23.33;53.54;102558.66;5069998;28;20085;-75
2022/07/10 11:03:14;;;;;;;2.70;2.03;;;;;;;23.40;51.76;102554.75;5072185;28;20020;-75
2022/07/10 11:05:41;;;;;;;3.63;2.25;;;;;;;23.38;51.54;102551.31;5071610;28;20063;-75
2022/07/10 11:08:07;;;;;;;4.40;1.90;;;;;;;23.48;51.56;102549.03;5070803;28;20513;-75
2022/07/10 11:10:36;;;;;;;4.63;2.10;;;;;;;23.34;50.84;102549.72;5071606;28;20019;-75
2022/07/10 11:13:03;;;;;;;5.45;2.25;;;;;;;23.13;51.71;102552.53;5071715;28;20024;-75
2022/07/10 11:15:36;;;;;;;4.90;2.08;;;;;;;22.98;51.34;102553.28;5070012;28;20024;-75
2022/07/10 11:18:09;;;;;;;3.30;1.98;;;;;;;22.91;51.76;102550.03;5064704;28;20032;-75
2022/07/10 11:20:36;;;;;;;3.83;2.05;;;;;;;23.08;50.80;102549.22;5070231;28;20024;-75
2022/07/10 11:23:20;;;;;;;3.33;1.60;;;;;;;23.42;51.09;102539.56;5065623;28;20032;-75
2022/07/10 11:26:07;;;;;;;5.95;2.08;;;;;;;23.58;51.23;102540.50;5058210;28;20453;-75
2022/07/10 11:28:51;;;;;;;2.78;1.58;;;;;;;23.73;50.33;102548.66;5071009;28;20029;-75
2022/07/10 11:31:18;;;;;;;3.83;1.65;;;;;;;23.83;48.25;102545.44;5070711;28;20033;-75
2022/07/10 11:33:46;;;;;;;3.58;2.10;;;;;;;23.92;49.11;102533.44;5066164;28;20112;-75
2022/07/10 11:36:34;;;;;;;3.13;1.90;;;;;;;24.21;50.94;102529.22;5066931;28;20139;-75